createdAt,value
2023-04-22T00:01:12.858Z,42.23
2023-04-22T00:03:42.230Z,42.11
2023-04-22T00:06:10.344Z,42.37
2023-04-22T00:08:38.218Z,42.75
2023-04-22T00:11:06.649Z,42.80
2023-04-22T00:13:34.597Z,42.77
2023-04-22T00:16:02.495Z,42.92
2023-04-22T00:18:30.319Z,42.44
2023-04-22T00:20:59.555Z,42.65
2023-04-22T00:23:27.408Z,42.42
2023-04-22T00:25:55.206Z,43.06
2023-04-22T00:28:23.014Z,42.58
2023-04-22T00:30:50.838Z,43.10
2023-04-22T00:33:18.660Z,42.99
2023-04-22T00:35:47.777Z,43.20
2023-04-22T00:38:17.119Z,43.30
2023-04-22T00:40:44.900Z,43.28
2023-04-22T00:43:14.909Z,43.28
2023-04-22T00:45:44.280Z,43.29
2023-04-22T00:48:13.999Z,43.16
2023-04-22T00:50:42.017Z,42.87
2023-04-22T00:53:09.854Z,43.37
2023-04-22T00:55:39.189Z,43.15
2023-04-22T00:58:07.931Z,43.29
2023-04-22T01:00:36.123Z,42.94
2023-04-22T01:03:04.916Z,43.59
2023-04-22T01:05:33.228Z,43.67
2023-04-22T01:08:01.537Z,43.60
2023-04-22T01:10:30.400Z,43.25
2023-04-22T01:12:59.661Z,43.76
2023-04-22T01:15:28.671Z,43.45
2023-04-22T01:17:57.345Z,43.15
2023-04-22T01:20:28.124Z,43.47
2023-04-22T01:22:57.482Z,43.61
2023-04-22T01:25:27.516Z,43.19
2023-04-22T01:27:56.341Z,43.08
2023-04-22T01:30:24.337Z,43.46
2023-04-22T01:32:52.402Z,43.15
2023-04-22T01:35:21.959Z,43.56
2023-04-22T01:37:50.023Z,43.60
2023-04-22T01:40:19.835Z,43.26
2023-04-22T01:42:49.947Z,43.83
2023-04-22T01:45:18.467Z,43.65
2023-04-22T01:47:46.336Z,43.33
2023-04-22T01:50:14.485Z,43.24
2023-04-22T01:52:42.287Z,43.72
2023-04-22T01:55:11.327Z,43.75
2023-04-22T01:57:39.129Z,43.46
2023-04-22T02:00:10.252Z,43.72
2023-04-22T02:02:40.883Z,43.61
2023-04-22T02:05:09.940Z,43.30
2023-04-22T02:07:37.779Z,43.17
2023-04-22T02:10:06.441Z,43.56
2023-04-22T02:12:34.511Z,43.31
2023-04-22T02:15:02.324Z,43.71
2023-04-22T02:17:31.479Z,43.94
2023-04-22T02:19:59.509Z,43.63
2023-04-22T02:22:29.479Z,43.45
2023-04-22T02:24:57.329Z,43.47
2023-04-22T02:27:25.104Z,43.46
2023-04-22T02:29:53.212Z,43.87
2023-04-22T02:32:21.080Z,43.43
2023-04-22T02:34:50.721Z,43.70
2023-04-22T02:37:19.070Z,43.52
2023-04-22T02:39:47.021Z,44.07
2023-04-22T02:42:14.827Z,43.51
2023-04-22T02:44:42.634Z,43.75
2023-04-22T02:47:13.849Z,44.28
2023-04-22T02:49:41.989Z,44.09
2023-04-22T02:52:12.000Z,43.78
2023-04-22T02:54:39.828Z,43.83
2023-04-22T02:57:07.891Z,43.65
2023-04-22T02:59:36.185Z,44.15
2023-04-22T03:02:06.913Z,44.09
2023-04-22T03:04:49.518Z,44.12
2023-04-22T03:07:18.870Z,44.22
2023-04-22T03:09:46.748Z,43.87
2023-04-22T03:12:14.604Z,43.67
2023-04-22T03:14:42.558Z,43.86
2023-04-22T03:17:10.689Z,43.66
2023-04-22T03:19:39.330Z,43.94
2023-04-22T03:22:07.544Z,44.06
2023-04-22T03:24:36.739Z,44.29
2023-04-22T03:27:07.459Z,44.00
2023-04-22T03:29:35.728Z,43.90
2023-04-22T03:32:03.665Z,43.83
2023-04-22T03:34:31.614Z,43.83
2023-04-22T03:36:59.562Z,43.80
2023-04-22T03:39:27.911Z,44.10
2023-04-22T03:41:57.127Z,43.92
2023-04-22T03:44:25.266Z,44.21
2023-04-22T03:46:53.584Z,44.35
2023-04-22T03:49:26.091Z,44.38
2023-04-22T03:51:57.252Z,43.89
2023-04-22T03:54:26.410Z,44.07
2023-04-22T03:56:54.424Z,44.43
2023-04-22T03:59:25.453Z,44.54
2023-04-22T04:01:54.161Z,44.59
2023-04-22T04:04:26.725Z,44.42
2023-04-22T04:07:01.601Z,43.97
2023-04-22T04:09:30.015Z,44.02
2023-04-22T04:11:58.102Z,44.47
2023-04-22T04:14:30.739Z,44.47
2023-04-22T04:16:58.980Z,44.23
2023-04-22T04:19:29.906Z,43.84
2023-04-22T04:21:57.969Z,44.39
2023-04-22T04:24:28.289Z,43.88
2023-04-22T04:27:03.136Z,43.92
2023-04-22T04:29:39.839Z,44.46
2023-04-22T04:32:14.236Z,44.40
2023-04-22T04:34:43.685Z,44.02
2023-04-22T04:37:12.719Z,44.38
2023-04-22T04:39:59.358Z,43.96
2023-04-22T04:42:34.446Z,44.41
2023-04-22T04:45:09.365Z,44.65
2023-04-22T04:47:37.348Z,44.13
2023-04-22T04:50:15.720Z,44.43
2023-04-22T04:52:44.874Z,44.14
2023-04-22T04:55:12.749Z,44.71
2023-04-22T04:57:41.178Z,44.64
2023-04-22T05:00:11.464Z,44.26
2023-04-22T05:02:39.472Z,44.18
2023-04-22T05:05:08.576Z,44.16
2023-04-22T05:07:38.119Z,44.18
2023-04-22T05:10:08.759Z,44.11
2023-04-22T05:12:37.302Z,44.31
2023-04-22T05:15:08.782Z,44.43
2023-04-22T05:17:39.587Z,44.23
2023-04-22T05:20:08.729Z,44.19
2023-04-22T05:22:37.454Z,44.17
2023-04-22T05:25:06.392Z,44.73
2023-04-22T05:27:34.709Z,44.78
2023-04-22T05:30:04.173Z,44.94
2023-04-22T05:32:34.354Z,45.01
2023-04-22T05:35:04.080Z,44.81
2023-04-22T05:37:32.277Z,44.69
2023-04-22T05:40:00.184Z,44.66
2023-04-22T05:42:28.494Z,44.46
2023-04-22T05:44:56.352Z,44.55
2023-04-22T05:47:24.322Z,44.73
2023-04-22T05:49:52.666Z,44.89
2023-04-22T05:52:31.972Z,45.08
2023-04-22T05:55:07.875Z,44.74
2023-04-22T05:57:35.856Z,45.17
2023-04-22T06:00:07.638Z,45.25
2023-04-22T06:02:41.045Z,45.20
2023-04-22T06:05:10.203Z,44.81
2023-04-22T06:07:41.007Z,44.75
2023-04-22T06:10:10.386Z,44.73
2023-04-22T06:12:38.231Z,44.69
2023-04-22T06:15:07.309Z,44.93
2023-04-22T06:17:35.560Z,44.69
2023-04-22T06:20:03.704Z,45.17
2023-04-22T06:22:32.694Z,44.98
2023-04-22T06:25:01.938Z,44.65
2023-04-22T06:27:29.804Z,44.96
2023-04-22T06:29:57.840Z,45.16
2023-04-22T06:32:25.825Z,44.78
2023-04-22T06:34:53.649Z,45.01
2023-04-22T06:37:21.571Z,45.35
2023-04-22T06:39:49.736Z,45.27
2023-04-22T06:42:39.071Z,45.41
2023-04-22T06:45:26.135Z,45.25
2023-04-22T06:48:11.106Z,45.30
2023-04-22T06:50:59.269Z,45.79
2023-04-22T06:53:27.736Z,45.68
2023-04-22T06:55:55.647Z,45.60
2023-04-22T06:58:25.017Z,45.71
2023-04-22T07:00:52.904Z,45.87
2023-04-22T07:03:20.988Z,45.48
2023-04-22T07:05:59.604Z,45.06
2023-04-22T07:08:27.801Z,44.81
2023-04-22T07:10:57.795Z,44.07
2023-04-22T07:13:36.875Z,43.50
2023-04-22T07:16:04.984Z,43.60
2023-04-22T07:18:32.951Z,42.92
2023-04-22T07:21:00.860Z,42.27
2023-04-22T07:23:28.706Z,42.19
2023-04-22T07:25:56.790Z,41.73
2023-04-22T07:28:24.738Z,42.14
2023-04-22T07:30:55.430Z,41.03
2023-04-22T07:33:23.467Z,41.66
2023-04-22T07:35:51.424Z,41.63
2023-04-22T07:38:19.329Z,41.88
2023-04-22T07:40:47.103Z,41.88
2023-04-22T07:43:15.077Z,41.42
2023-04-22T07:45:42.988Z,41.36
2023-04-22T07:48:12.292Z,41.01
2023-04-22T07:50:40.429Z,40.83
2023-04-22T07:53:10.256Z,40.52
2023-04-22T07:55:38.295Z,40.33
2023-04-22T07:58:06.849Z,40.41
2023-04-22T08:00:35.625Z,40.32
2023-04-22T08:03:04.108Z,40.04
2023-04-22T08:05:33.560Z,40.00
2023-04-22T08:08:01.485Z,39.53
2023-04-22T08:10:29.365Z,39.47
2023-04-22T08:12:57.235Z,39.19
2023-04-22T08:15:25.522Z,38.97
2023-04-22T08:17:53.415Z,38.88
2023-04-22T08:20:21.508Z,38.39
2023-04-22T08:22:57.101Z,38.46
2023-04-22T08:25:25.043Z,38.39
2023-04-22T08:27:52.902Z,38.08
2023-04-22T08:30:21.467Z,38.21
2023-04-22T08:32:49.430Z,38.34
2023-04-22T08:35:17.403Z,38.00
2023-04-22T08:37:45.248Z,37.49
2023-04-22T08:40:14.868Z,37.47
2023-04-22T08:42:44.845Z,37.23
2023-04-22T08:45:14.466Z,36.72
2023-04-22T08:47:43.783Z,36.69
2023-04-22T08:50:12.348Z,36.49
2023-04-22T08:52:40.216Z,36.50
2023-04-22T08:55:09.167Z,36.56
2023-04-22T08:57:40.207Z,36.02
2023-04-22T09:00:09.950Z,36.35
2023-04-22T09:02:39.367Z,36.14
2023-04-22T09:05:10.156Z,36.28
2023-04-22T09:07:39.649Z,36.27
2023-04-22T09:10:08.974Z,36.35
2023-04-22T09:12:39.788Z,35.87
2023-04-22T09:15:09.327Z,36.03
2023-04-22T09:17:39.261Z,35.80
2023-04-22T09:20:08.845Z,35.76
2023-04-22T09:22:41.785Z,34.93
2023-04-22T09:25:17.158Z,34.46
2023-04-22T09:27:49.800Z,34.60
2023-04-22T09:30:20.041Z,35.44
2023-04-22T09:32:55.346Z,34.39
2023-04-22T09:35:31.049Z,33.98
2023-04-22T09:37:59.961Z,35.00
2023-04-22T09:40:28.668Z,34.47
2023-04-22T09:42:59.883Z,33.95
2023-04-22T09:45:41.899Z,33.68
2023-04-22T09:48:11.899Z,33.98
2023-04-22T09:50:41.153Z,34.14
2023-04-22T09:53:11.358Z,34.09
2023-04-22T09:55:42.576Z,33.75
2023-04-22T09:58:13.047Z,33.92
2023-04-22T10:00:43.507Z,33.96
2023-04-22T10:03:11.569Z,34.00
2023-04-22T10:05:41.011Z,33.86
2023-04-22T10:08:10.772Z,33.75
2023-04-22T10:10:39.417Z,33.72
2023-04-22T10:13:08.047Z,33.44
2023-04-22T10:15:40.693Z,32.65
2023-04-22T10:18:11.835Z,33.32
2023-04-22T10:20:43.251Z,33.42
2023-04-22T10:23:15.743Z,33.19
2023-04-22T10:25:43.404Z,34.00
2023-04-22T10:28:14.396Z,33.57
2023-04-22T10:30:43.767Z,32.85
2023-04-22T10:33:39.794Z,32.35
2023-04-22T10:36:16.806Z,32.20
2023-04-22T10:39:18.405Z,31.70
2023-04-22T10:41:53.582Z,31.52
2023-04-22T10:44:22.894Z,31.96
2023-04-22T10:47:00.205Z,30.83
2023-04-22T10:49:31.887Z,31.44
2023-04-22T10:52:01.324Z,31.46
2023-04-22T10:54:57.735Z,30.90
2023-04-22T10:57:36.193Z,30.48
2023-04-22T11:00:22.259Z,30.47
2023-04-22T11:02:56.002Z,30.31
2023-04-22T11:05:27.180Z,30.82
2023-04-22T11:07:57.056Z,30.80
2023-04-22T11:10:44.652Z,30.13
2023-04-22T11:13:15.022Z,30.32
2023-04-22T11:15:44.478Z,30.33
2023-04-22T11:18:16.351Z,29.88
2023-04-22T11:20:44.174Z,30.09
2023-04-22T11:23:12.108Z,29.87
2023-04-22T11:25:39.954Z,29.98
2023-04-22T11:28:07.835Z,29.67
2023-04-22T11:30:35.823Z,29.71
2023-04-22T11:33:03.815Z,29.67
2023-04-22T11:35:34.528Z,29.71
2023-04-22T11:38:04.340Z,29.48
2023-04-22T11:40:36.043Z,29.38
2023-04-22T11:43:07.814Z,29.18
2023-04-22T11:45:37.354Z,29.27
2023-04-22T11:48:07.104Z,29.54
2023-04-22T11:50:38.283Z,29.19
2023-04-22T11:53:14.249Z,29.49
2023-04-22T11:55:43.446Z,29.53
2023-04-22T11:58:12.935Z,29.49
2023-04-22T12:00:43.227Z,29.83
2023-04-22T12:03:15.859Z,29.36
2023-04-22T12:05:47.351Z,29.19
2023-04-22T12:08:17.414Z,29.42
2023-04-22T12:10:47.026Z,29.47
2023-04-22T12:13:20.888Z,28.98
2023-04-22T12:15:49.774Z,29.30
2023-04-22T12:18:17.575Z,29.41
2023-04-22T12:20:46.757Z,29.44
2023-04-22T12:23:15.831Z,29.48
2023-04-22T12:25:44.763Z,29.61
2023-04-22T12:28:13.429Z,29.53
2023-04-22T12:30:41.294Z,29.78
2023-04-22T12:33:10.126Z,29.71
2023-04-22T12:35:38.364Z,29.70
2023-04-22T12:38:07.611Z,29.69
2023-04-22T12:40:35.526Z,29.52
2023-04-22T12:43:06.059Z,29.78
2023-04-22T12:45:34.143Z,29.49
2023-04-22T12:48:02.017Z,29.63
2023-04-22T12:50:30.101Z,29.32
2023-04-22T12:52:58.017Z,29.45
2023-04-22T12:55:27.540Z,29.24
2023-04-22T12:57:55.586Z,29.53
2023-04-22T13:00:25.437Z,29.29
2023-04-22T13:02:53.443Z,29.21
2023-04-22T13:05:21.719Z,29.30
2023-04-22T13:07:56.484Z,29.65
2023-04-22T13:10:33.402Z,29.27
2023-04-22T13:13:16.978Z,29.48
2023-04-22T13:15:46.209Z,29.23
2023-04-22T13:18:14.088Z,29.14
2023-04-22T13:20:42.706Z,29.36
2023-04-22T13:23:10.789Z,29.58
2023-04-22T13:25:40.298Z,29.63
2023-04-22T13:28:08.111Z,30.07
2023-04-22T13:30:35.997Z,30.34
2023-04-22T13:33:03.847Z,30.76
2023-04-22T13:35:32.026Z,30.67
2023-04-22T13:38:00.048Z,30.91
2023-04-22T13:40:28.301Z,30.89
2023-04-22T13:42:57.480Z,31.36
2023-04-22T13:45:26.142Z,31.14
2023-04-22T13:47:55.098Z,31.30
2023-04-22T13:50:23.820Z,31.38
2023-04-22T13:52:52.054Z,31.33
2023-04-22T13:55:19.966Z,31.64
2023-04-22T13:57:47.949Z,32.08
2023-04-22T14:00:17.731Z,32.09
2023-04-22T14:02:46.409Z,32.05
2023-04-22T14:05:14.390Z,32.24
2023-04-22T14:07:42.254Z,32.36
2023-04-22T14:10:12.117Z,32.40
2023-04-22T14:12:40.838Z,32.49
2023-04-22T14:15:10.880Z,32.62
2023-04-22T14:17:40.898Z,32.63
2023-04-22T14:20:10.213Z,32.64
2023-04-22T14:22:38.414Z,32.84
2023-04-22T14:25:07.332Z,33.18
2023-04-22T14:27:35.487Z,33.40
2023-04-22T14:30:04.870Z,33.50
2023-04-22T14:32:33.223Z,33.18
2023-04-22T14:35:02.454Z,33.16
2023-04-22T14:37:31.711Z,33.40
2023-04-22T14:39:59.632Z,33.21
2023-04-22T14:42:28.271Z,33.20
2023-04-22T14:44:56.096Z,33.18
2023-04-22T14:47:24.528Z,32.88
2023-04-22T14:49:53.613Z,33.17
2023-04-22T14:52:23.068Z,33.54
2023-04-22T14:54:52.100Z,33.54
2023-04-22T14:57:20.389Z,33.60
2023-04-22T14:59:48.173Z,33.99
2023-04-22T15:02:16.784Z,34.19
2023-04-22T15:04:44.940Z,34.01
2023-04-22T15:07:12.792Z,33.96
2023-04-22T15:09:42.318Z,34.19
2023-04-22T15:12:10.320Z,34.25
2023-04-22T15:14:38.564Z,33.84
2023-04-22T15:17:07.069Z,34.09
2023-04-22T15:19:35.077Z,34.11
2023-04-22T15:22:03.058Z,34.34
2023-04-22T15:24:30.942Z,34.30
2023-04-22T15:27:00.646Z,34.64
2023-04-22T15:29:29.005Z,34.47
2023-04-22T15:31:57.807Z,34.23
2023-04-22T15:34:25.983Z,34.52
2023-04-22T15:36:54.349Z,34.38
2023-04-22T15:39:22.159Z,34.97
2023-04-22T15:41:50.106Z,34.69
2023-04-22T15:44:19.448Z,34.53
2023-04-22T15:46:47.507Z,34.52
2023-04-22T15:49:15.765Z,34.82
2023-04-22T15:51:43.651Z,35.24
2023-04-22T15:54:11.616Z,35.10
2023-04-22T15:56:39.492Z,34.71
2023-04-22T15:59:07.268Z,35.20
2023-04-22T16:01:36.601Z,35.12
2023-04-22T16:04:05.308Z,35.38
2023-04-22T16:06:33.265Z,35.50
2023-04-22T16:09:01.028Z,35.53
2023-04-22T16:11:30.400Z,36.13
2023-04-22T16:13:58.297Z,36.02
2023-04-22T16:16:27.573Z,36.27
2023-04-22T16:18:56.958Z,36.23
2023-04-22T16:21:25.132Z,36.51
2023-04-22T16:23:52.962Z,36.61
2023-04-22T16:26:20.824Z,36.90
2023-04-22T16:28:48.705Z,36.70
2023-04-22T16:31:18.142Z,36.60
2023-04-22T16:33:46.584Z,36.93
2023-04-22T16:36:15.725Z,37.43
2023-04-22T16:38:43.502Z,37.80
2023-04-22T16:41:11.664Z,37.69
2023-04-22T16:43:41.024Z,38.04
2023-04-22T16:46:09.289Z,38.15
2023-04-22T16:48:37.293Z,38.73
2023-04-22T16:51:05.972Z,38.72
2023-04-22T16:53:35.207Z,39.18
2023-04-22T16:56:02.988Z,39.01
2023-04-22T16:58:30.891Z,39.33
2023-04-22T17:00:58.832Z,39.26
2023-04-22T17:03:27.131Z,39.22
2023-04-22T17:05:55.073Z,39.48
2023-04-22T17:08:22.846Z,39.40
2023-04-22T17:10:52.584Z,39.56
2023-04-22T17:13:20.828Z,39.63
2023-04-22T17:15:48.705Z,40.06
2023-04-22T17:18:16.599Z,39.91
2023-04-22T17:20:44.527Z,40.01
2023-04-22T17:23:12.511Z,40.19
2023-04-22T17:25:40.343Z,40.23
2023-04-22T17:28:11.326Z,40.85
2023-04-22T17:30:39.621Z,40.96
2023-04-22T17:33:07.496Z,40.86
2023-04-22T17:35:35.379Z,41.01
2023-04-22T17:38:03.199Z,40.99
2023-04-22T17:40:31.259Z,41.29
2023-04-22T17:42:59.064Z,41.24
2023-04-22T17:45:28.345Z,41.50
2023-04-22T17:47:56.162Z,41.32
2023-04-22T17:50:24.217Z,41.58
2023-04-22T17:52:52.159Z,41.58
2023-04-22T17:55:20.261Z,41.77
2023-04-22T17:57:48.037Z,41.82
2023-04-22T18:00:17.992Z,41.50
2023-04-22T18:02:47.674Z,41.74
2023-04-22T18:05:15.673Z,41.71
2023-04-22T18:07:43.504Z,41.75
2023-04-22T18:10:12.698Z,41.82
2023-04-22T18:12:41.341Z,41.81
2023-04-22T18:15:09.845Z,41.98
2023-04-22T18:17:37.944Z,42.04
2023-04-22T18:20:17.214Z,42.38
2023-04-22T18:22:46.655Z,42.10
2023-04-22T18:25:15.117Z,41.96
2023-04-22T18:27:42.978Z,42.03
2023-04-22T18:30:11.363Z,42.19
2023-04-22T18:32:39.784Z,42.35
2023-04-22T18:35:09.865Z,42.49
2023-04-22T18:37:37.712Z,42.37
2023-04-22T18:40:07.216Z,42.46
2023-04-22T18:42:35.306Z,42.41
2023-04-22T18:45:04.904Z,42.54
2023-04-22T18:47:33.283Z,42.72
2023-04-22T18:50:01.278Z,42.45
2023-04-22T18:52:30.601Z,42.94
2023-04-22T18:54:58.408Z,42.71
2023-04-22T18:57:26.447Z,42.83
2023-04-22T18:59:54.991Z,42.57
2023-04-22T19:02:23.158Z,42.79
2023-04-22T19:04:51.303Z,42.97
2023-04-22T19:07:19.342Z,42.66
2023-04-22T19:09:48.611Z,43.04
2023-04-22T19:12:18.986Z,42.73
2023-04-22T19:14:48.197Z,42.91
2023-04-22T19:17:16.055Z,42.51
2023-04-22T19:19:45.320Z,42.21
2023-04-22T19:22:13.718Z,42.44
2023-04-22T19:24:41.605Z,41.85
2023-04-22T19:27:12.451Z,41.85
2023-04-22T19:29:41.618Z,41.69
2023-04-22T19:32:10.894Z,41.40
2023-04-22T19:34:39.140Z,41.39
2023-04-22T19:37:08.186Z,41.61
2023-04-22T19:39:36.671Z,41.35
2023-04-22T19:42:04.648Z,41.38
2023-04-22T19:44:34.078Z,41.35
2023-04-22T19:47:01.982Z,41.26
2023-04-22T19:49:31.766Z,41.56
2023-04-22T19:52:02.792Z,41.46
2023-04-22T19:54:31.256Z,41.78
2023-04-22T19:56:59.498Z,41.66
2023-04-22T19:59:31.620Z,41.78
2023-04-22T20:02:01.193Z,42.01
2023-04-22T20:04:29.801Z,41.79
2023-04-22T20:07:01.443Z,42.03
2023-04-22T20:09:32.702Z,42.60
2023-04-22T20:12:01.261Z,42.03
2023-04-22T20:14:29.599Z,41.79
2023-04-22T20:16:57.730Z,42.03
2023-04-22T20:19:27.664Z,42.17
2023-04-22T20:21:58.628Z,42.16
2023-04-22T20:24:29.860Z,42.16
2023-04-22T20:26:58.478Z,42.32
2023-04-22T20:29:26.946Z,42.18
2023-04-22T20:31:56.464Z,42.53
2023-04-22T20:34:26.762Z,42.31
2023-04-22T20:36:54.853Z,42.06
2023-04-22T20:39:23.856Z,42.32
2023-04-22T20:41:55.224Z,42.10
2023-04-22T20:44:23.211Z,42.08
2023-04-22T20:46:51.239Z,41.77
2023-04-22T20:49:19.270Z,42.14
2023-04-22T20:51:48.627Z,42.23
2023-04-22T20:54:27.730Z,42.05
2023-04-22T20:56:57.760Z,42.22
2023-04-22T20:59:25.790Z,41.96
2023-04-22T21:01:54.626Z,42.10
2023-04-22T21:04:23.962Z,41.52
2023-04-22T21:06:54.604Z,41.79
2023-04-22T21:09:24.822Z,41.44
2023-04-22T21:11:54.570Z,41.73
2023-04-22T21:14:26.186Z,41.34
2023-04-22T21:16:59.064Z,41.54
2023-04-22T21:19:27.401Z,41.78
2023-04-22T21:21:59.384Z,41.18
2023-04-22T21:24:28.458Z,41.66
2023-04-22T21:26:56.443Z,41.50
2023-04-22T21:29:24.851Z,41.18
2023-04-22T21:32:07.265Z,41.01
2023-04-22T21:34:36.633Z,41.12
2023-04-22T21:37:06.715Z,41.30
2023-04-22T21:39:34.903Z,40.97
2023-04-22T21:42:07.451Z,40.75
2023-04-22T21:44:36.206Z,41.70
2023-04-22T21:47:04.222Z,40.84
2023-04-22T21:49:32.282Z,40.79
2023-04-22T21:52:01.007Z,40.82
2023-04-22T21:54:30.702Z,40.64
2023-04-22T21:56:58.698Z,41.16
2023-04-22T21:59:26.568Z,40.60
2023-04-22T22:01:54.494Z,40.61
2023-04-22T22:04:22.533Z,40.78
2023-04-22T22:06:50.596Z,40.98
2023-04-22T22:09:18.717Z,40.80
2023-04-22T22:11:47.992Z,40.56
2023-04-22T22:14:16.114Z,40.78
2023-04-22T22:16:44.494Z,40.92
2023-04-22T22:19:13.942Z,41.14
2023-04-22T22:21:41.725Z,40.68
2023-04-22T22:24:10.543Z,41.33
2023-04-22T22:26:41.018Z,41.15
2023-04-22T22:29:15.367Z,40.64
2023-04-22T22:31:43.487Z,41.23
2023-04-22T22:34:11.635Z,40.95
2023-04-22T22:36:39.508Z,40.76
2023-04-22T22:39:10.274Z,41.11
2023-04-22T22:41:38.152Z,40.62
2023-04-22T22:44:06.019Z,40.83
2023-04-22T22:46:35.252Z,40.89
2023-04-22T22:49:03.444Z,40.66
2023-04-22T22:51:32.708Z,40.88
2023-04-22T22:54:01.420Z,41.02
2023-04-22T22:56:29.269Z,40.78
2023-04-22T22:58:57.073Z,40.98
2023-04-22T23:01:25.081Z,40.74
2023-04-22T23:03:54.390Z,40.94
2023-04-22T23:06:22.313Z,41.02
2023-04-22T23:08:50.177Z,40.94
2023-04-22T23:11:18.042Z,40.85
2023-04-22T23:13:46.439Z,40.59
2023-04-22T23:16:14.452Z,41.16
2023-04-22T23:18:42.645Z,40.78
2023-04-22T23:21:12.713Z,41.05
2023-04-22T23:23:42.215Z,40.81
2023-04-22T23:26:10.850Z,40.70
2023-04-22T23:28:39.122Z,40.80
2023-04-22T23:31:08.071Z,41.11
2023-04-22T23:33:39.954Z,41.13
2023-04-22T23:36:10.276Z,41.24
2023-04-22T23:38:39.515Z,41.45
2023-04-22T23:41:07.723Z,41.41
2023-04-22T23:43:35.673Z,41.46
2023-04-22T23:46:03.831Z,41.08
2023-04-22T23:48:31.746Z,41.06
2023-04-22T23:50:59.616Z,41.41
2023-04-22T23:53:27.401Z,41.11
2023-04-22T23:55:57.378Z,41.21
2023-04-22T23:58:25.575Z,41.40
